Terminal Aerodrome Forecast
Issued by NWS

Home | Current Version | Previous Version | Text Only | Print | Product List | Glossary On
Versions: 1 2 3 4 5 6 7 8 9 10 11 12 13 14 15
000
FTUS46 KSGX 201120
TAFONT
TAF
KONT 201120Z 2012/2118 VRB04KT P6SM FEW012
      TEMPO 2012/2016 4SM BR HZ BKN008
     FM201900 26011KT P6SM SKC
     FM210500 VRB04KT P6SM SKC
     FM211000 VRB04KT 4SM BR BKN010
     FM211600 VRB05KT P6SM SCT012=

USA.gov is the U.S. government's official web portal to all federal, state and local government web resources and services.